| Date | Time | Temp. (oF) | Dew Point (oF) | Rel. Hum. (%) | Press. (in.) | Wind Dir. | Wind Speed (mph) | Hourly Rainfall (in.) |
|
|---|---|---|---|---|---|---|---|---|---|
| 1 | 01/22 | 00:00 | 14 | 1 | 58 | 30.11 | W | 4 | 0.00 |
| 2 | 01/21 | 23:00 | 15 | 2 | 56 | 30.10 | WNW | 8 | 0.00 |
| 3 | 01/21 | 22:00 | 16 | 1 | 52 | 30.10 | NW | 6 | 0.00 |
| 4 | 01/21 | 21:00 | 17 | 2 | 52 | 30.08 | WNW | 6 | 0.00 |
| 5 | 01/21 | 20:00 | 18 | 2 | 50 | 30.08 | WNW | 8 | 0.00 |
| 6 | 01/21 | 19:00 | 19 | 2 | 49 | 30.06 | WSW | 6 | 0.00 |
| 7 | 01/21 | 18:00 | 21 | 3 | 46 | 30.04 | NW | 11 | 0.00 |
| 8 | 01/21 | 17:00 | 24 | 3 | 41 | 30.01 | NNW | 9 | 0.00 |
| 9 | 01/21 | 16:00 | 26 | 2 | 36 | 29.97 | WNW | 5 | 0.00 |
| 10 | 01/21 | 15:00 | 27 | 7 | 44 | 29.96 | WNW | 3 | 0.00 |
| 11 | 01/21 | 14:00 | 26 | 7 | 45 | 29.97 | NW | 11 | 0.00 |
| 12 | 01/21 | 13:00 | 25 | 8 | 49 | 30.01 | WNW | 13 | 0.00 |
| 13 | 01/21 | 12:00 | 24 | 10 | 56 | 30.04 | WNW | 9 | 0.00 |
| 14 | 01/21 | 11:00 | 23 | 10 | 58 | 30.07 | WNW | 5 | 0.00 |
| 15 | 01/21 | 10:00 | 22 | 10 | 60 | 30.08 | WNW | 8 | 0.00 |
| 16 | 01/21 | 09:00 | 18 | 9 | 68 | 30.08 | WSW | 3 | 0.00 |
| 17 | 01/21 | 08:00 | 15 | 6 | 68 | 30.06 | SW | 2 | 0.00 |
| 18 | 01/21 | 07:00 | 15 | 5 | 65 | 30.06 | WNW | 2 | 0.00 |
| 19 | 01/21 | 06:00 | 16 | 5 | 62 | 30.06 | WNW | 4 | 0.00 |
| 20 | 01/21 | 05:00 | 15 | 4 | 62 | 30.06 | WNW | 3 | 0.00 |
| 21 | 01/21 | 04:00 | 15 | 3 | 61 | 30.06 | NW | 2 | 0.00 |
| 22 | 01/21 | 03:00 | 16 | 4 | 59 | 30.07 | NW | 3 | 0.00 |
| 23 | 01/21 | 02:00 | 17 | 4 | 57 | 30.07 | NW | 2 | 0.00 |
| 24 | 01/21 | 01:00 | 17 | 4 | 58 | 30.05 | NW | 5 | 0.00 |